createdAt,value
2022-12-11T04:12:16.526Z,867.73
2022-12-11T04:15:26.349Z,891.90
2022-12-11T04:18:47.626Z,889.77
2022-12-11T04:22:08.421Z,892.37
2022-12-11T04:25:18.191Z,899.27
2022-12-11T04:28:29.188Z,877.40
2022-12-11T04:31:38.955Z,871.03
2022-12-11T04:34:48.797Z,881.70
2022-12-11T04:37:58.612Z,890.97
2022-12-11T04:41:11.800Z,870.03
2022-12-11T04:44:22.992Z,897.07
2022-12-11T04:47:32.903Z,927.10
2022-12-11T04:50:42.620Z,805.63
2022-12-11T04:53:52.389Z,889.77
2022-12-11T04:57:02.162Z,896.63
2022-12-11T05:00:14.743Z,927.20
2022-12-11T05:03:24.636Z,936.40
2022-12-11T05:06:34.419Z,891.33
2022-12-11T05:09:44.158Z,908.50
2022-12-11T05:12:53.907Z,923.27
2022-12-11T05:16:07.095Z,929.13
2022-12-11T05:19:17.951Z,923.83
2022-12-11T05:22:27.596Z,912.67
2022-12-11T05:25:37.307Z,892.30
2022-12-11T05:28:48.037Z,732.23
2022-12-11T05:31:59.043Z,822.07
2022-12-11T05:35:09.200Z,877.07
2022-12-11T05:38:19.401Z,892.13
2022-12-11T05:41:31.175Z,934.87
2022-12-11T05:44:40.866Z,939.90
2022-12-11T05:47:51.820Z,911.40
2022-12-11T05:51:02.464Z,915.93
2022-12-11T05:54:12.293Z,860.47
2022-12-11T05:57:22.324Z,912.47
2022-12-11T06:00:36.019Z,893.67
2022-12-11T08:06:49.519Z,891.17
2022-12-11T08:10:01.793Z,828.57
2022-12-11T08:13:11.613Z,857.60
2022-12-11T08:16:21.742Z,889.13
2022-12-11T08:19:31.577Z,749.97
2022-12-11T08:22:42.584Z,744.33
2022-12-11T08:25:52.365Z,755.00
2022-12-11T08:29:03.070Z,746.07
2022-12-11T08:32:13.975Z,757.70
2022-12-11T08:35:23.783Z,746.80
2022-12-11T08:38:35.119Z,711.17
2022-12-11T08:41:44.840Z,760.97
2022-12-11T08:44:54.570Z,756.50
2022-12-11T08:48:04.403Z,728.37
2022-12-11T08:51:16.448Z,769.83
2022-12-11T08:54:27.513Z,772.03
2022-12-11T08:57:39.686Z,760.93
2022-12-11T09:00:49.395Z,730.00
2022-12-11T09:03:59.594Z,790.50
2022-12-11T09:07:09.386Z,752.93
2022-12-11T09:10:20.687Z,810.60
2022-12-11T09:13:30.442Z,800.23
2022-12-11T09:16:41.307Z,811.23
2022-12-11T09:19:51.024Z,726.43
2022-12-11T09:23:00.723Z,688.90
2022-12-11T09:26:17.602Z,675.33
2022-12-11T09:29:27.376Z,687.73
2022-12-11T09:32:37.135Z,658.47
2022-12-11T09:35:46.849Z,672.23
2022-12-11T09:38:57.178Z,743.93
2022-12-11T09:42:15.775Z,729.33
2022-12-11T09:45:25.536Z,710.40
2022-12-11T09:48:36.045Z,688.33
2022-12-11T09:51:51.053Z,734.83
2022-12-11T09:55:03.382Z,688.87
2022-12-11T09:58:25.765Z,715.87
2022-12-11T10:01:45.563Z,737.13
2022-12-11T10:05:07.267Z,698.37
2022-12-11T10:08:24.911Z,753.87
2022-12-11T10:11:56.509Z,746.47
2022-12-11T10:15:25.447Z,724.53
2022-12-11T10:18:35.301Z,743.73
2022-12-11T10:21:45.686Z,677.77
2022-12-11T10:25:10.557Z,769.00
2022-12-11T10:28:22.313Z,702.30
2022-12-11T10:31:43.085Z,701.90
2022-12-11T10:35:00.148Z,746.77
2022-12-11T10:38:16.009Z,775.03
2022-12-11T10:41:37.292Z,683.03
2022-12-11T10:44:57.958Z,688.47
2022-12-11T10:48:13.205Z,692.17
2022-12-11T10:51:26.354Z,682.60
2022-12-11T10:54:39.172Z,732.40
2022-12-11T10:57:56.546Z,761.97
2022-12-11T11:01:09.926Z,644.97
2022-12-11T11:04:26.172Z,721.17
2022-12-11T11:07:35.945Z,588.60
2022-12-11T11:10:54.770Z,700.20
2022-12-11T11:14:08.544Z,547.13
2022-12-11T11:17:18.590Z,660.43
2022-12-11T11:20:32.497Z,545.97
2022-12-11T11:23:46.308Z,599.40
2022-12-11T11:27:14.414Z,506.77
2022-12-11T11:30:27.773Z,530.20
2022-12-11T11:33:46.152Z,607.03
2022-12-11T11:37:05.570Z,524.37
2022-12-11T11:40:20.835Z,558.93
2022-12-11T11:43:38.807Z,593.20
2022-12-11T11:46:54.423Z,604.33
2022-12-11T11:50:09.467Z,541.60
2022-12-11T11:53:25.215Z,510.70
2022-12-11T11:56:38.056Z,510.47
2022-12-11T11:59:53.431Z,560.93
2022-12-11T12:03:07.060Z,567.87
2022-12-11T12:06:29.345Z,554.07
2022-12-11T12:09:50.186Z,531.23
2022-12-11T12:13:23.870Z,545.53
2022-12-11T12:16:53.468Z,541.00
2022-12-11T12:20:15.032Z,567.70
2022-12-11T12:23:41.151Z,546.33
2022-12-11T12:26:57.987Z,567.70
2022-12-11T12:30:17.399Z,571.03
2022-12-11T12:33:42.298Z,561.83
2022-12-11T12:37:01.015Z,550.83
2022-12-11T12:40:19.484Z,556.67
2022-12-11T12:43:48.270Z,550.83
2022-12-11T12:47:01.849Z,593.07
2022-12-11T12:50:15.677Z,548.40
2022-12-11T12:53:28.485Z,517.90
2022-12-11T12:56:40.617Z,598.30
2022-12-11T12:59:56.338Z,557.03
2022-12-11T13:03:15.111Z,609.63
2022-12-11T13:06:32.712Z,664.10
2022-12-11T13:09:42.795Z,549.47
2022-12-11T13:12:53.132Z,634.13
2022-12-11T13:16:24.489Z,562.50
2022-12-11T13:19:42.120Z,565.73
2022-12-11T13:22:58.082Z,585.47
2022-12-11T13:26:10.373Z,599.97
2022-12-11T13:29:31.020Z,600.37
2022-12-11T13:32:50.288Z,605.83
2022-12-11T13:36:25.221Z,561.33
2022-12-11T13:39:38.339Z,622.43
2022-12-11T13:42:52.047Z,675.63
2022-12-11T13:46:06.473Z,718.47
2022-12-11T13:49:24.418Z,656.43
2022-12-11T13:52:34.046Z,714.53
2022-12-11T13:55:43.919Z,741.47
2022-12-11T13:58:54.086Z,740.47
2022-12-11T14:02:15.413Z,731.60
2022-12-11T14:05:26.637Z,713.43
2022-12-11T14:08:40.463Z,732.33
2022-12-11T14:11:56.479Z,728.70
2022-12-11T14:15:07.453Z,746.83
2022-12-11T14:18:21.893Z,658.50
2022-12-11T14:21:33.103Z,674.97
2022-12-11T14:24:50.990Z,697.37
2022-12-11T14:28:01.633Z,765.93
2022-12-11T14:31:16.654Z,740.30
2022-12-11T14:34:29.955Z,729.33
2022-12-11T14:37:41.950Z,716.63
2022-12-11T14:40:57.349Z,748.43
2022-12-11T14:44:09.057Z,698.23
2022-12-11T14:47:22.674Z,710.43
2022-12-11T14:50:38.883Z,723.00
2022-12-11T14:53:54.062Z,744.93
2022-12-11T14:57:06.965Z,769.23
2022-12-11T15:00:24.888Z,742.90
2022-12-11T15:03:36.573Z,740.93
2022-12-11T15:06:48.115Z,774.03
2022-12-11T15:09:59.316Z,745.67
2022-12-11T15:13:10.012Z,734.27
2022-12-11T15:16:20.976Z,757.63
2022-12-11T15:19:33.884Z,760.23
2022-12-11T15:22:44.496Z,713.40
2022-12-11T15:25:57.922Z,724.77
2022-12-11T15:29:26.194Z,752.07
2022-12-11T15:32:35.947Z,717.60
2022-12-11T15:35:55.338Z,666.83
2022-12-11T15:39:08.694Z,656.30
2022-12-11T15:42:25.795Z,728.67
2022-12-11T15:45:36.652Z,728.73
2022-12-11T15:48:48.078Z,675.53
2022-12-11T15:51:57.843Z,680.30
2022-12-11T15:55:08.119Z,662.40
2022-12-11T15:58:21.464Z,724.17
2022-12-11T16:01:31.507Z,667.67
2022-12-11T16:04:41.571Z,647.17
2022-12-11T16:07:52.257Z,667.83
2022-12-11T16:11:02.083Z,679.17
2022-12-11T16:14:13.183Z,649.13
2022-12-11T16:17:22.904Z,651.60
2022-12-11T16:20:33.427Z,649.40
2022-12-11T16:23:43.098Z,677.37
2022-12-11T16:26:52.787Z,665.37
2022-12-11T16:30:07.038Z,727.17
2022-12-11T16:33:17.082Z,721.93
2022-12-11T16:36:26.884Z,729.97
2022-12-11T16:39:38.412Z,685.20
2022-12-11T16:42:49.246Z,687.37
2022-12-11T16:46:00.295Z,723.93
2022-12-11T16:49:09.996Z,716.60
2022-12-11T16:52:22.312Z,755.57
2022-12-11T16:55:32.375Z,670.60
2022-12-11T16:58:42.207Z,697.53
2022-12-11T17:01:53.246Z,741.03
2022-12-11T17:05:03.119Z,728.80
2022-12-11T17:08:12.863Z,766.43
2022-12-11T17:11:26.144Z,711.33
2022-12-11T17:14:35.852Z,713.87
2022-12-11T17:17:46.931Z,759.80
2022-12-11T17:20:56.688Z,793.07
2022-12-11T17:24:07.130Z,801.13
2022-12-11T17:27:16.937Z,845.07
2022-12-11T17:30:26.870Z,892.00
2022-12-11T17:33:38.891Z,782.60
2022-12-11T17:36:48.593Z,857.70
2022-12-11T17:39:58.284Z,764.60
2022-12-11T17:43:09.384Z,832.53
2022-12-11T17:46:20.007Z,749.87
2022-12-11T17:49:31.168Z,812.53
2022-12-11T17:52:44.368Z,765.40
2022-12-11T17:55:54.317Z,758.03
2022-12-11T17:59:04.716Z,810.90
2022-12-11T18:02:14.477Z,847.70
2022-12-11T18:05:25.636Z,751.93
2022-12-11T18:08:35.536Z,747.93
2022-12-11T18:11:45.521Z,859.27
2022-12-11T18:14:55.156Z,844.33
2022-12-11T18:18:05.326Z,865.87
2022-12-11T18:21:19.549Z,728.10
2022-12-11T18:24:31.799Z,858.43
2022-12-11T18:27:41.479Z,859.43
2022-12-11T18:30:51.689Z,870.17
2022-12-11T18:34:01.736Z,885.63
2022-12-11T18:37:12.721Z,879.23
2022-12-11T18:40:22.523Z,813.37
2022-12-11T18:43:32.292Z,855.47
2022-12-11T18:46:42.048Z,886.03
2022-12-11T18:49:51.977Z,848.97
2022-12-11T18:53:03.777Z,846.07
2022-12-11T18:56:15.532Z,864.97
2022-12-11T18:59:25.303Z,754.40
2022-12-11T19:02:35.584Z,861.97
2022-12-11T19:05:45.344Z,738.53
2022-12-11T19:08:56.342Z,685.93
2022-12-11T19:12:06.698Z,734.30
2022-12-11T19:15:19.590Z,833.37
2022-12-11T19:18:33.212Z,756.50
2022-12-11T19:21:43.993Z,750.97
2022-12-11T19:24:55.076Z,717.10
2022-12-11T19:28:05.302Z,799.93
2022-12-11T19:31:17.487Z,777.83
2022-12-11T19:34:27.193Z,742.90
2022-12-11T19:37:36.963Z,794.30
2022-12-11T19:40:48.383Z,813.33
2022-12-11T19:43:58.974Z,745.23
2022-12-11T19:47:08.808Z,760.97
2022-12-11T19:50:18.752Z,707.80
2022-12-11T19:53:30.031Z,781.87
2022-12-11T19:56:41.199Z,750.87
2022-12-11T19:59:56.827Z,781.80
2022-12-11T20:03:06.986Z,752.07
2022-12-11T20:06:16.906Z,731.00
2022-12-11T20:09:26.689Z,718.57
2022-12-11T20:12:37.756Z,767.07
2022-12-11T20:15:47.457Z,729.90
2022-12-11T20:18:57.564Z,748.47
2022-12-11T20:22:07.529Z,747.70
2022-12-11T20:25:17.449Z,738.53
2022-12-11T20:28:28.564Z,716.73
2022-12-11T20:31:38.421Z,713.10
2022-12-11T20:34:48.244Z,763.60
2022-12-11T20:37:58.045Z,775.20
2022-12-11T20:41:12.781Z,762.23
2022-12-11T20:44:23.822Z,752.93
2022-12-11T20:47:33.665Z,730.67
2022-12-11T20:50:43.603Z,709.27
2022-12-11T20:53:58.308Z,730.87
2022-12-11T20:57:08.186Z,709.87
2022-12-11T21:00:20.077Z,710.83
2022-12-11T21:03:29.819Z,794.77
2022-12-11T21:06:41.959Z,772.33
2022-12-11T21:09:51.693Z,756.63
2022-12-11T21:13:01.437Z,771.90
2022-12-11T21:16:13.140Z,780.43
2022-12-11T21:19:23.475Z,769.67
2022-12-11T21:22:33.539Z,749.70
2022-12-11T21:25:43.486Z,771.43
2022-12-11T21:28:53.529Z,759.07
2022-12-11T21:32:05.318Z,747.23
2022-12-11T21:35:15.152Z,751.10
2022-12-11T21:38:25.410Z,757.10
2022-12-11T21:41:35.314Z,732.13
2022-12-11T21:48:16.800Z,737.20
2022-12-11T21:51:34.317Z,712.40
2022-12-11T21:54:46.207Z,694.03
2022-12-11T21:57:56.372Z,728.33
2022-12-11T22:01:07.797Z,724.10
2022-12-11T22:04:18.873Z,739.37
2022-12-11T22:07:28.693Z,684.23
2022-12-11T22:10:38.552Z,695.03
2022-12-11T22:13:48.266Z,733.53
2022-12-11T22:16:58.124Z,695.03
2022-12-11T22:20:10.134Z,689.80
2022-12-11T22:23:19.976Z,692.87
2022-12-11T22:26:30.201Z,775.83
2022-12-11T22:29:39.960Z,751.77
2022-12-11T22:32:49.814Z,756.77
2022-12-11T22:36:01.514Z,698.27
2022-12-11T22:39:11.356Z,758.53
2022-12-11T22:42:21.281Z,750.17
2022-12-11T22:45:31.131Z,752.67
2022-12-11T22:48:40.909Z,691.90
2022-12-11T22:51:51.834Z,742.40
2022-12-11T22:55:01.797Z,726.73
2022-12-11T22:58:11.506Z,721.37
2022-12-11T23:01:23.788Z,797.60
2022-12-11T23:04:33.811Z,793.53
2022-12-11T23:07:45.011Z,783.37
2022-12-11T23:10:54.953Z,754.13
2022-12-11T23:14:05.750Z,729.70
2022-12-11T23:17:15.600Z,818.27
2022-12-11T23:20:26.263Z,784.17
2022-12-11T23:23:37.305Z,713.67
2022-12-11T23:26:48.167Z,729.00
2022-12-11T23:29:58.109Z,791.57
2022-12-11T23:33:08.386Z,716.03
2022-12-11T23:36:18.721Z,756.00
2022-12-11T23:39:29.921Z,734.27
2022-12-11T23:42:40.654Z,708.73
2022-12-11T23:45:50.605Z,715.17
2022-12-11T23:49:00.342Z,767.07
2022-12-11T23:52:12.247Z,700.13
